UNI912 WMKJ-WMKJ
Flight info
| Callsign | UNI912 |
|---|---|
| Flight time | 0h 5m |
| Altitude | 1500 |
| Route | WMKJ TO WMKJ / CIRCUITS AND LANDING / POB 02 / ENDURANCE 3 HOURS / 1500FT / |
| Aircraft | DA40/L-VGDW/C |
Departure
| Time | 2026-04-23 16:36 |
|---|---|
| Airport | Senai International Airport (WMKJ) |
Arrival
| Time | 2026-04-23 16:41 |
|---|---|
| Airport | Senai International Airport (WMKJ) |
| Time | Latitude | Longitude | Altitude | Speed | Heading |
|---|---|---|---|---|---|
| 2026-04-23 16:34 | 1.65514 | 103.66412 | 148 ft | 0 kts | 159° |
| 2026-04-23 16:34 | 1.65509 | 103.66414 | 148 ft | 0 kts | 156° |
| 2026-04-23 16:34 | 1.65374 | 103.66464 | 148 ft | 45 kts | 165° |
| 2026-04-23 16:35 | 1.64948 | 103.66613 | 163 ft | 80 kts | 157° |
| 2026-04-23 16:35 | 1.64416 | 103.66813 | 322 ft | 84 kts | 164° |
| 2026-04-23 16:35 | 1.63869 | 103.67041 | 514 ft | 84 kts | 148° |
| 2026-04-23 16:35 | 1.63481 | 103.67446 | 710 ft | 81 kts | 113° |
| 2026-04-23 16:36 | 1.63443 | 103.67986 | 893 ft | 78 kts | 70° |
| 2026-04-23 16:36 | 1.63836 | 103.68387 | 976 ft | 91 kts | 21° |
| 2026-04-23 16:36 | 1.64478 | 103.68323 | 953 ft | 105 kts | 337° |
| 2026-04-23 16:36 | 1.65156 | 103.68021 | 895 ft | 107 kts | 338° |
| 2026-04-23 16:37 | 1.65835 | 103.67753 | 895 ft | 102 kts | 339° |
| 2026-04-23 16:37 | 1.66445 | 103.67465 | 936 ft | 97 kts | 334° |
| 2026-04-23 16:37 | 1.67056 | 103.67161 | 918 ft | 99 kts | 335° |
| 2026-04-23 16:37 | 1.67659 | 103.66853 | 929 ft | 98 kts | 335° |
| 2026-04-23 16:38 | 1.68273 | 103.66561 | 921 ft | 98 kts | 336° |
| 2026-04-23 16:38 | 1.68843 | 103.66192 | 870 ft | 97 kts | 314° |
| 2026-04-23 16:38 | 1.69081 | 103.65601 | 812 ft | 90 kts | 266° |
| 2026-04-23 16:38 | 1.68752 | 103.65112 | 732 ft | 88 kts | 202° |
| 2026-04-23 16:39 | 1.68192 | 103.65220 | 656 ft | 86 kts | 142° |
| 2026-04-23 16:39 | 1.67710 | 103.65528 | 623 ft | 82 kts | 151° |
| 2026-04-23 16:39 | 1.67199 | 103.65774 | 561 ft | 81 kts | 154° |
| 2026-04-23 16:39 | 1.66680 | 103.65987 | 468 ft | 80 kts | 159° |
| 2026-04-23 16:40 | 1.66157 | 103.66183 | 387 ft | 80 kts | 159° |
| 2026-04-23 16:40 | 1.65628 | 103.66371 | 253 ft | 81 kts | 160° |
| 2026-04-23 16:40 | 1.65127 | 103.66549 | 153 ft | 68 kts | 160° |
| 2026-04-23 16:40 | 1.64743 | 103.66689 | 148 ft | 50 kts | 160° |
| 2026-04-23 16:41 | 1.64701 | 103.66704 | 147 ft | 48 kts | 160° |
| 2026-04-23 16:41 | 1.64653 | 103.66721 | 147 ft | 46 kts | 161° |
| 2026-04-23 16:41 | 1.64298 | 103.66855 | 148 ft | 72 kts | 160° |
| 2026-04-23 16:41 | 1.63763 | 103.67049 | 249 ft | 85 kts | 160° |
| 2026-04-23 16:42 | 1.63186 | 103.67252 | 422 ft | 89 kts | 162° |
| 2026-04-23 16:42 | 1.62645 | 103.67513 | 651 ft | 84 kts | 137° |
| 2026-04-23 16:42 | 1.62308 | 103.67977 | 822 ft | 84 kts | 108° |
| 2026-04-23 16:42 | 1.62335 | 103.68549 | 953 ft | 90 kts | 63° |
| 2026-04-23 16:43 | 1.62846 | 103.68958 | 965 ft | 101 kts | 14° |
| 2026-04-23 16:43 | 1.63538 | 103.68837 | 944 ft | 105 kts | 337° |
| 2026-04-23 16:43 | 1.64210 | 103.68544 | 929 ft | 108 kts | 339° |
| 2026-04-23 16:43 | 1.64885 | 103.68242 | 935 ft | 106 kts | 336° |
| 2026-04-23 16:44 | 1.65560 | 103.67974 | 929 ft | 102 kts | 340° |
| 2026-04-23 16:44 | 1.66207 | 103.67689 | 962 ft | 100 kts | 338° |
| 2026-04-23 16:44 | 1.66845 | 103.67402 | 953 ft | 100 kts | 339° |
| 2026-04-23 16:44 | 1.67498 | 103.67132 | 907 ft | 102 kts | 339° |
| 2026-04-23 16:45 | 1.68147 | 103.66869 | 894 ft | 100 kts | 341° |
| 2026-04-23 16:45 | 1.68791 | 103.66631 | 899 ft | 98 kts | 341° |
| 2026-04-23 16:45 | 1.69454 | 103.66402 | 842 ft | 102 kts | 338° |
| 2026-04-23 16:45 | 1.69971 | 103.65966 | 771 ft | 95 kts | 299° |
| 2026-04-23 16:46 | 1.70051 | 103.65326 | 690 ft | 92 kts | 261° |
| 2026-04-23 16:46 | 1.69773 | 103.64793 | 623 ft | 88 kts | 218° |
| 2026-04-23 16:46 | 1.69209 | 103.64700 | 562 ft | 86 kts | 159° |
| 2026-04-23 16:46 | 1.68712 | 103.65009 | 586 ft | 81 kts | 143° |
| 2026-04-23 16:47 | 1.68244 | 103.65308 | 616 ft | 80 kts | 149° |
| 2026-04-23 16:47 | 1.67746 | 103.65552 | 617 ft | 80 kts | 153° |
| 2026-04-23 16:47 | 1.67233 | 103.65780 | 573 ft | 81 kts | 156° |
| 2026-04-23 16:47 | 1.66714 | 103.65972 | 462 ft | 77 kts | 160° |
| 2026-04-23 16:48 | 1.66218 | 103.66158 | 378 ft | 75 kts | 158° |
| 2026-04-23 16:48 | 1.65719 | 103.66339 | 285 ft | 77 kts | 159° |
| 2026-04-23 16:48 | 1.65228 | 103.66513 | 175 ft | 72 kts | 159° |
| 2026-04-23 16:48 | 1.64803 | 103.66666 | 148 ft | 56 kts | 160° |
| 2026-04-23 16:49 | 1.64567 | 103.66754 | 146 ft | 63 kts | 159° |
| 2026-04-23 16:49 | 1.63883 | 103.67000 | 255 ft | 85 kts | 159° |
| 2026-04-23 16:49 | 1.63317 | 103.67207 | 435 ft | 86 kts | 159° |
| 2026-04-23 16:49 | 1.62750 | 103.67425 | 644 ft | 87 kts | 149° |
| 2026-04-23 16:50 | 1.62367 | 103.67846 | 850 ft | 83 kts | 110° |
| 2026-04-23 16:50 | 1.62349 | 103.68431 | 959 ft | 92 kts | 71° |
| 2026-04-23 16:50 | 1.62724 | 103.68956 | 998 ft | 96 kts | 38° |
| 2026-04-23 16:50 | 1.63368 | 103.69145 | 1015 ft | 98 kts | 359° |
| 2026-04-23 16:51 | 1.64046 | 103.68931 | 936 ft | 106 kts | 338° |
| 2026-04-23 16:51 | 1.64727 | 103.68628 | 897 ft | 106 kts | 339° |
| 2026-04-23 16:51 | 1.65375 | 103.68345 | 953 ft | 100 kts | 338° |
| 2026-04-23 16:51 | 1.66005 | 103.68033 | 896 ft | 104 kts | 335° |
| 2026-04-23 16:52 | 1.66675 | 103.67752 | 872 ft | 105 kts | 339° |
| 2026-04-23 16:52 | 1.67335 | 103.67479 | 881 ft | 99 kts | 338° |
| 2026-04-23 16:52 | 1.67979 | 103.67221 | 857 ft | 100 kts | 338° |
| 2026-04-23 16:52 | 1.68536 | 103.66847 | 817 ft | 95 kts | 310° |
| 2026-04-23 16:53 | 1.68701 | 103.66238 | 722 ft | 93 kts | 262° |
| 2026-04-23 16:53 | 1.68319 | 103.65764 | 648 ft | 90 kts | 199° |
| 2026-04-23 16:53 | 1.67706 | 103.65731 | 595 ft | 86 kts | 173° |
| 2026-04-23 16:53 | 1.67116 | 103.65833 | 485 ft | 85 kts | 163° |
| 2026-04-23 16:54 | 1.66567 | 103.66021 | 406 ft | 81 kts | 157° |
| 2026-04-23 16:54 | 1.66046 | 103.66219 | 315 ft | 81 kts | 158° |
| 2026-04-23 16:54 | 1.65521 | 103.66411 | 216 ft | 77 kts | 160° |
| 2026-04-23 16:54 | 1.65062 | 103.66575 | 149 ft | 60 kts | 160° |
| 2026-04-23 16:55 | 1.64712 | 103.66705 | 147 ft | 50 kts | 159° |
| 2026-04-23 16:55 | 1.64293 | 103.66859 | 148 ft | 81 kts | 159° |
| 2026-04-23 16:55 | 1.63739 | 103.67059 | 297 ft | 86 kts | 160° |
| 2026-04-23 16:55 | 1.63195 | 103.67272 | 511 ft | 84 kts | 150° |
| 2026-04-23 16:56 | 1.62793 | 103.67685 | 679 ft | 85 kts | 109° |
| 2026-04-23 16:56 | 1.62797 | 103.68256 | 870 ft | 82 kts | 67° |
| 2026-04-23 16:56 | 1.63180 | 103.68721 | 950 ft | 96 kts | 35° |
| 2026-04-23 16:56 | 1.63837 | 103.68843 | 966 ft | 102 kts | 352° |
| 2026-04-23 16:57 | 1.64496 | 103.68522 | 982 ft | 107 kts | 333° |
| 2026-04-23 16:57 | 1.65155 | 103.68199 | 989 ft | 104 kts | 338° |
| 2026-04-23 16:57 | 1.65801 | 103.67863 | 995 ft | 106 kts | 335° |
| 2026-04-23 16:57 | 1.66485 | 103.67538 | 941 ft | 110 kts | 338° |
| 2026-04-23 16:58 | 1.67152 | 103.67226 | 970 ft | 104 kts | 336° |
| 2026-04-23 16:58 | 1.67772 | 103.66873 | 915 ft | 103 kts | 321° |
| 2026-04-23 16:58 | 1.68111 | 103.66282 | 815 ft | 98 kts | 280° |
| 2026-04-23 16:58 | 1.67891 | 103.65677 | 706 ft | 94 kts | 219° |
| 2026-04-23 16:59 | 1.67302 | 103.65648 | 589 ft | 91 kts | 147° |
| 2026-04-23 16:59 | 1.66762 | 103.65950 | 444 ft | 88 kts | 155° |
| 2026-04-23 16:59 | 1.66203 | 103.66158 | 300 ft | 84 kts | 159° |
| 2026-04-23 16:59 | 1.65673 | 103.66348 | 236 ft | 78 kts | 158° |
| 2026-04-23 17:00 | 1.65175 | 103.66533 | 162 ft | 73 kts | 159° |
| 2026-04-23 17:00 | 1.64749 | 103.66690 | 148 ft | 60 kts | 157° |
| 2026-04-23 17:00 | 1.64271 | 103.66865 | 183 ft | 83 kts | 159° |
| 2026-04-23 17:00 | 1.63721 | 103.67072 | 324 ft | 89 kts | 159° |
| 2026-04-23 17:01 | 1.63158 | 103.67287 | 558 ft | 85 kts | 156° |
| 2026-04-23 17:01 | 1.62697 | 103.67617 | 763 ft | 79 kts | 124° |
| 2026-04-23 17:01 | 1.62540 | 103.68138 | 935 ft | 81 kts | 80° |
| 2026-04-23 17:01 | 1.62822 | 103.68674 | 961 ft | 95 kts | 44° |
| 2026-04-23 17:02 | 1.63208 | 103.68891 | 934 ft | 99 kts | 19° |
| 2026-04-23 17:02 | 1.64122 | 103.68769 | 976 ft | 103 kts | 337° |
| 2026-04-23 17:02 | 1.64764 | 103.68476 | 1023 ft | 103 kts | 340° |
| 2026-04-23 17:02 | 1.65421 | 103.68162 | 1008 ft | 107 kts | 337° |
| 2026-04-23 17:03 | 1.66116 | 103.67841 | 953 ft | 112 kts | 341° |
| 2026-04-23 17:03 | 1.66820 | 103.67557 | 1040 ft | 106 kts | 340° |
| 2026-04-23 17:03 | 1.67512 | 103.67260 | 969 ft | 102 kts | 334° |
| 2026-04-23 17:03 | 1.68003 | 103.66801 | 854 ft | 97 kts | 303° |
| 2026-04-23 17:04 | 1.68200 | 103.66170 | 725 ft | 94 kts | 272° |
| 2026-04-23 17:04 | 1.67946 | 103.65614 | 590 ft | 90 kts | 212° |
| 2026-04-23 17:04 | 1.67368 | 103.65656 | 462 ft | 89 kts | 149° |
| 2026-04-23 17:04 | 1.66837 | 103.65929 | 427 ft | 87 kts | 158° |
| 2026-04-23 17:05 | 1.66263 | 103.66134 | 372 ft | 88 kts | 157° |
| 2026-04-23 17:05 | 1.65674 | 103.66351 | 246 ft | 91 kts | 160° |
| 2026-04-23 17:05 | 1.65122 | 103.66550 | 151 ft | 74 kts | 162° |
| 2026-04-23 17:05 | 1.64715 | 103.66698 | 147 ft | 53 kts | 160° |
| 2026-04-23 17:06 | 1.64507 | 103.66769 | 147 ft | 43 kts | 160° |
| 2026-04-23 17:06 | 1.64290 | 103.66844 | 148 ft | 8 kts | 187° |
| 2026-04-23 17:06 | 1.64283 | 103.66820 | 148 ft | 5 kts | 262° |
| 2026-04-23 17:06 | 1.64278 | 103.66786 | 148 ft | 5 kts | 259° |
| 2026-04-23 17:07 | 1.64269 | 103.66747 | 147 ft | 6 kts | 257° |
| 2026-04-23 17:07 | 1.64260 | 103.66709 | 147 ft | 0 kts | 254° |